Time;durP1;ratioP1;P1;durP2;ratioP2;P2;SDS_P1;SDS_P2;PMS_P1;PMS_P2;Temp;Humidity;BMP_temperature;BMP_pressure;BME280_temperature;BME280_humidity;BME280_pressure;Samples;Min_cycle;Max_cycle;Signal;HPM_P1;HPM_P2
2022/05/22 00:00:24;;;;;;;15.52;4.78;;;9.90;99.90;;;;;;4948586;28;218349;-67
2022/05/22 00:02:51;;;;;;;15.48;5.35;;;9.90;99.90;;;;;;4986264;28;20043;-66
2022/05/22 00:05:20;;;;;;;12.75;4.75;;;9.90;99.90;;;;;;4938756;28;207002;-65
2022/05/22 00:07:47;;;;;;;15.45;5.18;;;9.80;99.90;;;;;;4982778;28;20568;-67
2022/05/22 00:10:14;;;;;;;17.45;5.40;;;9.80;99.90;;;;;;4956244;28;216876;-67
2022/05/22 00:12:41;;;;;;;15.32;4.50;;;9.80;99.90;;;;;;4983256;28;20362;-66
2022/05/22 00:15:09;;;;;;;12.88;4.82;;;9.80;99.90;;;;;;4959449;28;213077;-67
2022/05/22 00:17:35;;;;;;;11.80;4.90;;;9.70;99.90;;;;;;4985209;28;20050;-67
2022/05/22 00:20:04;;;;;;;15.27;5.68;;;9.70;99.90;;;;;;4934044;28;217540;-67
2022/05/22 00:22:31;;;;;;;17.23;5.93;;;9.70;99.90;;;;;;4999021;28;20046;-67
2022/05/22 00:24:57;;;;;;;15.65;5.88;;;9.70;99.90;;;;;;4937008;28;207340;-67
2022/05/22 00:27:24;;;;;;;14.43;5.65;;;9.70;99.90;;;;;;4985518;28;20488;-68
2022/05/22 00:29:50;;;;;;;16.45;6.00;;;9.70;99.90;;;;;;4934372;28;212934;-68
2022/05/22 00:32:16;;;;;;;15.43;5.20;;;9.70;99.90;;;;;;5003219;28;20050;-68
2022/05/22 00:34:42;;;;;;;13.55;5.43;;;9.60;99.90;;;;;;4939345;28;226255;-67
2022/05/22 00:37:09;;;;;;;14.68;6.85;;;9.60;99.90;;;;;;4993122;28;20050;-67
2022/05/22 00:39:35;;;;;;;15.93;6.72;;;9.60;99.90;;;;;;4935743;28;221429;-68
2022/05/22 00:42:15;;;;;;;14.88;7.07;;;9.60;99.90;;;;;;5005886;28;20046;-68
2022/05/22 00:44:42;;;;;;;18.20;7.40;;;9.50;99.90;;;;;;4950821;28;212628;-68
2022/05/22 00:47:08;;;;;;;18.88;7.13;;;9.50;99.90;;;;;;4992451;28;20050;-67
2022/05/22 00:49:35;;;;;;;14.90;6.93;;;9.50;99.90;;;;;;4952887;28;209166;-68
2022/05/22 00:52:11;;;;;;;18.05;8.27;;;9.50;99.90;;;;;;4987172;28;20442;-66
2022/05/22 00:54:44;;;;;;;20.15;8.02;;;9.50;99.90;;;;;;4941925;28;215185;-67
2022/05/22 00:57:35;;;;;;;20.88;8.68;;;9.50;99.90;;;;;;4997044;28;20060;-68
2022/05/22 01:00:09;;;;;;;17.48;7.10;;;9.50;99.90;;;;;;4948272;28;215119;-68
2022/05/22 01:05:20;;;;;;;16.13;7.40;;;9.50;99.90;;;;;;4920872;28;210298;-67
2022/05/22 01:07:46;;;;;;;16.13;6.68;;;9.40;99.90;;;;;;4985728;28;20145;-67
2022/05/22 01:10:13;;;;;;;13.85;6.97;;;9.40;99.90;;;;;;4948712;28;216018;-66
2022/05/22 01:12:42;;;;;;;17.60;7.30;;;9.40;99.90;;;;;;4988215;28;20068;-66
2022/05/22 01:15:10;;;;;;;15.73;6.80;;;9.40;99.90;;;;;;4949971;28;212571;-67
2022/05/22 01:17:43;;;;;;;15.88;7.22;;;9.30;99.90;;;;;;4992017;28;20039;-67
2022/05/22 01:20:11;;;;;;;16.20;6.72;;;9.40;99.90;;;;;;4934944;28;205019;-67
2022/05/22 01:22:37;;;;;;;19.98;7.60;;;9.40;99.90;;;;;;4982461;28;20053;-66
2022/05/22 01:25:05;;;;;;;22.38;7.50;;;9.40;99.90;;;;;;4946314;28;219449;-67
2022/05/22 01:27:32;;;;;;;18.85;7.13;;;9.40;99.90;;;;;;4993479;28;20499;-67
2022/05/22 01:30:07;;;;;;;19.08;7.20;;;9.40;99.90;;;;;;4947827;28;198077;-66
2022/05/22 01:32:34;;;;;;;19.77;6.30;;;9.40;99.90;;;;;;4989625;28;20050;-68
2022/05/22 01:35:00;;;;;;;19.38;6.85;;;9.40;99.90;;;;;;4942980;28;209334;-68
2022/05/22 01:37:26;;;;;;;17.67;6.63;;;9.30;99.90;;;;;;4993375;28;20061;-68
2022/05/22 01:39:52;;;;;;;14.50;6.30;;;9.30;99.90;;;;;;4940197;28;206441;-68
2022/05/22 01:42:18;;;;;;;13.25;6.38;;;9.30;99.90;;;;;;4988129;28;20061;-68
2022/05/22 01:44:45;;;;;;;13.32;6.10;;;9.20;99.90;;;;;;4941909;28;216266;-66
2022/05/22 01:47:11;;;;;;;17.10;7.65;;;9.20;99.90;;;;;;4998650;28;20066;-68
2022/05/22 01:49:37;;;;;;;17.85;7.30;;;9.10;99.90;;;;;;4942334;28;212797;-67
2022/05/22 01:52:04;;;;;;;19.52;7.70;;;9.20;99.90;;;;;;4989991;28;20148;-66
2022/05/22 01:54:30;;;;;;;16.65;7.70;;;9.20;99.90;;;;;;4944855;28;212598;-66
2022/05/22 01:56:56;;;;;;;17.98;7.00;;;9.20;99.90;;;;;;4998911;28;20062;-67
2022/05/22 01:59:23;;;;;;;19.85;7.88;;;9.20;99.90;;;;;;4941488;28;242806;-67
2022/05/22 02:01:49;;;;;;;15.93;7.15;;;9.20;99.90;;;;;;4997902;28;20053;-67
2022/05/22 02:04:15;;;;;;;18.05;6.60;;;9.10;99.90;;;;;;4912452;22;212105;-76
2022/05/22 02:08:18;;;;;;;15.15;6.75;;;9.10;99.90;;;;;;4937640;28;20059;-76
2022/05/22 02:09:28;;;;;;;14.93;6.88;;;9.10;99.90;;;;;;4880650;28;211671;-76
2022/05/22 02:11:54;;;;;;;19.95;7.30;;;9.10;99.90;;;;;;4939673;28;20465;-76
2022/05/22 02:14:20;;;;;;;19.20;7.90;;;9.10;99.90;;;;;;4890741;28;206255;-78
2022/05/22 02:16:46;;;;;;;18.92;7.82;;;9.00;99.90;;;;;;4944882;28;20055;-76
2022/05/22 02:19:13;;;;;;;15.57;6.78;;;9.00;99.90;;;;;;4887315;28;211483;-76
2022/05/22 02:21:39;;;;;;;19.65;7.05;;;9.00;99.90;;;;;;4921990;28;20234;-76
2022/05/22 02:24:05;;;;;;;17.70;7.50;;;9.00;99.90;;;;;;4910594;28;191167;-77
2022/05/22 02:26:31;;;;;;;18.92;6.97;;;9.00;99.90;;;;;;4931323;29;20064;-77
2022/05/22 02:28:58;;;;;;;18.92;7.97;;;9.00;99.90;;;;;;4881693;28;215125;-77
2022/05/22 02:31:24;;;;;;;19.00;7.45;;;9.10;99.90;;;;;;4906613;29;20054;-76
2022/05/22 02:33:50;;;;;;;17.13;6.47;;;9.00;99.90;;;;;;4880880;28;205593;-76
2022/05/22 02:36:17;;;;;;;20.17;7.07;;;9.00;99.90;;;;;;4930322;28;195376;-76
2022/05/22 02:38:43;;;;;;;17.20;6.72;;;9.00;99.90;;;;;;4898924;28;223452;-76
2022/05/22 02:41:15;;;;;;;15.82;7.20;;;8.90;99.90;;;;;;4907274;28;228810;-76
2022/05/22 02:43:42;;;;;;;18.10;6.85;;;8.80;99.90;;;;;;4897957;28;218711;-76
2022/05/22 02:46:10;;;;;;;20.23;8.15;;;8.80;99.90;;;;;;4911311;28;159006;-77
2022/05/22 02:48:36;;;;;;;17.17;7.10;;;8.80;99.90;;;;;;4902130;28;260224;-77
2022/05/22 02:51:02;;;;;;;19.10;6.93;;;8.80;99.90;;;;;;4917467;28;192228;-77
2022/05/22 02:53:28;;;;;;;14.43;6.37;;;8.70;99.90;;;;;;4906202;28;208387;-76
2022/05/22 02:55:55;;;;;;;16.85;6.40;;;8.70;99.90;;;;;;4922088;28;78100;-77
2022/05/22 02:58:21;;;;;;;14.60;6.07;;;8.70;99.90;;;;;;4933011;28;212363;-76
2022/05/22 03:00:47;;;;;;;16.73;6.80;;;8.60;99.90;;;;;;4890209;28;205678;-76
2022/05/22 03:03:13;;;;;;;16.42;6.35;;;8.60;99.90;;;;;;4928028;29;20110;-76
2022/05/22 03:08:24;;;;;;;13.90;6.60;;;8.50;99.90;;;;;;4893450;28;225334;-76
2022/05/22 03:10:50;;;;;;;17.50;6.60;;;8.40;99.90;;;;;;4884314;29;207226;-77
2022/05/22 03:13:17;;;;;;;14.73;6.88;;;8.40;99.90;;;;;;4925369;29;20055;-77
2022/05/22 03:15:43;;;;;;;15.23;6.20;;;8.40;99.90;;;;;;4838527;28;235247;-76
2022/05/22 03:18:09;;;;;;;13.27;5.68;;;8.40;99.90;;;;;;4923015;29;20603;-77
2022/05/22 03:20:35;;;;;;;16.38;7.03;;;8.30;99.90;;;;;;4858176;28;213961;-77
2022/05/22 03:23:02;;;;;;;14.50;6.78;;;8.30;99.90;;;;;;4924685;29;20405;-76
2022/05/22 03:25:28;;;;;;;18.85;6.50;;;8.30;99.90;;;;;;4880938;28;204584;-76
2022/05/22 03:27:54;;;;;;;12.25;5.97;;;8.30;99.90;;;;;;4922840;29;20052;-76
2022/05/22 03:30:20;;;;;;;13.75;6.18;;;8.30;99.90;;;;;;4881349;28;207072;-76
2022/05/22 03:32:46;;;;;;;11.32;5.50;;;8.20;99.90;;;;;;4925150;29;20328;-76
2022/05/22 03:35:12;;;;;;;14.25;6.63;;;8.20;99.90;;;;;;4859499;28;164261;-76
2022/05/22 03:37:39;;;;;;;14.32;6.15;;;8.20;99.90;;;;;;4932212;28;20055;-77
2022/05/22 03:40:05;;;;;;;15.20;5.95;;;8.30;99.90;;;;;;4870172;28;211667;-77
2022/05/22 03:42:33;;;;;;;12.95;6.00;;;8.20;99.90;;;;;;4907173;29;20075;-77
2022/05/22 03:44:59;;;;;;;13.27;6.00;;;8.30;99.90;;;;;;4859585;28;208672;-76
2022/05/22 03:47:25;;;;;;;13.98;6.10;;;8.30;99.90;;;;;;4927936;28;20136;-77
2022/05/22 03:49:51;;;;;;;11.52;5.43;;;8.30;99.90;;;;;;4889050;28;204937;-77
2022/05/22 03:52:18;;;;;;;14.07;6.53;;;8.30;99.90;;;;;;4963397;28;20047;-77
2022/05/22 03:54:44;;;;;;;12.90;5.68;;;8.30;99.90;;;;;;4876473;28;276334;-76
2022/05/22 03:57:10;;;;;;;12.85;6.35;;;8.30;99.90;;;;;;4936798;28;20051;-76
2022/05/22 03:59:38;;;;;;;16.33;7.05;;;8.30;99.90;;;;;;4886678;28;214446;-76
2022/05/22 04:02:05;;;;;;;15.90;6.93;;;8.40;99.90;;;;;;4942373;28;20155;-76
2022/05/22 04:04:31;;;;;;;14.43;6.22;;;8.50;99.90;;;;;;4877971;28;227695;-77
2022/05/22 04:06:57;;;;;;;16.65;6.78;;;8.50;99.90;;;;;;4928519;28;20055;-76
2022/05/22 04:09:26;;;;;;;17.92;7.50;;;8.50;99.90;;;;;;4889956;28;227566;-76
2022/05/22 04:11:52;;;;;;;15.80;7.40;;;8.60;99.90;;;;;;4925865;28;20059;-76
2022/05/22 04:14:18;;;;;;;14.00;5.70;;;8.70;99.90;;;;;;4907356;28;204276;-76
2022/05/22 04:16:45;;;;;;;16.55;7.78;;;8.80;99.90;;;;;;4925295;28;20070;-76
2022/05/22 04:19:11;;;;;;;15.15;7.22;;;8.80;99.90;;;;;;4888027;28;204979;-76
2022/05/22 04:21:37;;;;;;;18.08;7.90;;;8.90;99.90;;;;;;4945078;28;20377;-76
2022/05/22 04:27:04;;;;;;;22.10;9.27;;;9.00;99.90;;;;;;4890581;29;20485;-78
2022/05/22 04:29:31;;;;;;;19.02;8.20;;;9.10;99.90;;;;;;4850575;29;219174;-76
2022/05/22 04:31:57;;;;;;;18.20;7.47;;;9.20;99.90;;;;;;4917100;29;20067;-76
2022/05/22 04:34:24;;;;;;;18.65;6.75;;;9.20;99.90;;;;;;4867337;28;225718;-76
2022/05/22 04:36:50;;;;;;;17.75;7.25;;;9.30;99.90;;;;;;4895038;29;20066;-77
2022/05/22 04:39:16;;;;;;;15.73;7.63;;;9.30;99.90;;;;;;4849902;29;204583;-75
2022/05/22 04:41:43;;;;;;;19.00;7.88;;;9.30;99.90;;;;;;4898385;29;20055;-75
2022/05/22 04:44:09;;;;;;;20.97;8.33;;;9.40;99.90;;;;;;4843195;29;205417;-75
2022/05/22 04:46:35;;;;;;;18.05;8.15;;;9.40;99.90;;;;;;4918416;29;20059;-76
2022/05/22 04:49:01;;;;;;;18.80;8.88;;;9.50;99.90;;;;;;4865825;28;148713;-75
2022/05/22 04:51:27;;;;;;;21.55;8.52;;;9.50;99.90;;;;;;4904908;29;20058;-76
2022/05/22 04:53:54;;;;;;;18.83;8.73;;;9.60;99.90;;;;;;4889317;29;204915;-76
2022/05/22 04:56:20;;;;;;;20.67;8.23;;;9.60;99.90;;;;;;4877515;29;68366;-77
2022/05/22 04:58:47;;;;;;;19.67;8.30;;;9.70;99.90;;;;;;4861733;29;203960;-76
2022/05/22 05:01:14;;;;;;;19.83;8.20;;;9.80;99.90;;;;;;4897254;29;256837;-76
2022/05/22 05:03:40;;;;;;;20.98;8.82;;;9.80;99.90;;;;;;4893447;28;213366;-76
2022/05/22 05:06:07;;;;;;;23.13;9.20;;;9.90;99.90;;;;;;4898892;28;213154;-76
2022/05/22 05:08:33;;;;;;;18.33;8.25;;;10.00;99.90;;;;;;4895954;28;214361;-76
2022/05/22 05:11:00;;;;;;;21.45;9.40;;;10.00;99.90;;;;;;4915046;28;167039;-76
2022/05/22 05:13:27;;;;;;;21.50;8.93;;;10.10;99.90;;;;;;4918759;28;209690;-76
2022/05/22 05:16:11;;;;;;;23.80;9.10;;;10.20;99.90;;;;;;4923173;28;174095;-76
2022/05/22 05:18:38;;;;;;;23.50;7.88;;;10.30;99.90;;;;;;4905822;28;213359;-76
2022/05/22 05:21:10;;;;;;;17.60;8.68;;;10.40;99.90;;;;;;4914092;28;233889;-77
2022/05/22 05:23:36;;;;;;;;;;;10.50;99.90;;;;;;4880987;28;224179;-75
2022/05/22 05:26:02;;;;;;;23.83;8.75;;;10.60;99.90;;;;;;4926913;28;218942;-76
2022/05/22 05:28:29;;;;;;;20.47;8.37;;;10.70;99.90;;;;;;4905589;28;211769;-75
2022/05/22 05:30:55;;;;;;;18.30;8.88;;;10.70;99.90;;;;;;4929784;28;206433;-76
2022/05/22 05:33:21;;;;;;;21.90;8.55;;;10.80;99.90;;;;;;4927738;28;211390;-76
2022/05/22 05:35:48;;;;;;;20.02;9.38;;;11.00;99.90;;;;;;4905207;28;208229;-76
2022/05/22 05:38:14;;;;;;;21.45;9.15;;;11.00;99.90;;;;;;4927100;28;20634;-76
2022/05/22 05:40:40;;;;;;;22.55;8.73;;;11.10;99.90;;;;;;4887779;28;277819;-77
2022/05/22 05:43:07;;;;;;;24.05;9.50;;;11.20;99.90;;;;;;4955042;28;20048;-77
2022/05/22 05:45:34;;;;;;;24.45;8.85;;;11.30;99.90;;;;;;4877229;28;204804;-77
2022/05/22 05:48:00;;;;;;;23.48;9.38;;;11.50;99.90;;;;;;4945347;28;20047;-75
2022/05/22 05:50:27;;;;;;;26.00;8.73;;;11.60;99.90;;;;;;4859278;28;207518;-77
2022/05/22 05:52:56;;;;;;;20.60;8.93;;;11.70;99.90;;;;;;4923742;29;20082;-76
2022/05/22 05:55:24;;;;;;;25.60;8.65;;;11.80;99.90;;;;;;4879303;28;214852;-76
2022/05/22 05:57:50;;;;;;;20.63;8.30;;;12.00;99.90;;;;;;4944978;28;20051;-76
2022/05/22 06:00:20;;;;;;;17.13;7.55;;;12.30;99.90;;;;;;4887545;28;201843;-76
2022/05/22 06:02:46;;;;;;;22.25;7.53;;;12.50;99.90;;;;;;4926612;28;20043;-77
2022/05/22 06:05:13;;;;;;;16.75;5.85;;;12.80;99.90;;;;;;4867511;28;184290;-77
2022/05/22 06:07:39;;;;;;;20.67;6.78;;;13.00;99.90;;;;;;4941163;28;20073;-77
2022/05/22 06:10:09;;;;;;;19.42;5.85;;;13.20;99.90;;;;;;4876243;28;205368;-77
2022/05/22 06:12:35;;;;;;;18.60;6.43;;;13.40;99.90;;;;;;4961851;28;20058;-77
2022/05/22 06:15:02;;;;;;;20.55;6.13;;;13.50;99.90;;;;;;4898332;28;208600;-76
2022/05/22 06:17:38;;;;;;;14.68;4.90;;;13.70;99.90;;;;;;4938835;28;20054;-76
2022/05/22 06:20:08;;;;;;;16.30;5.15;;;13.90;99.90;;;;;;4884244;28;206779;-78
2022/05/22 06:22:35;;;;;;;20.58;5.50;;;14.00;99.90;;;;;;4941696;28;20074;-78
2022/05/22 06:25:04;;;;;;;14.48;4.90;;;14.10;99.90;;;;;;4885087;28;204849;-77
2022/05/22 06:27:30;;;;;;;18.02;4.47;;;14.20;99.90;;;;;;4939869;28;20393;-77
2022/05/22 06:29:57;;;;;;;19.08;4.72;;;14.40;99.90;;;;;;4900365;28;215121;-78
2022/05/22 06:32:23;;;;;;;16.45;5.28;;;14.60;99.90;;;;;;4954155;28;20441;-78
2022/05/22 06:34:49;;;;;;;16.17;4.15;;;14.80;99.90;;;;;;4893013;28;211890;-78
2022/05/22 06:37:19;;;;;;;17.45;4.18;;;14.80;99.90;;;;;;4937247;28;20155;-77
2022/05/22 06:39:51;;;;;;;19.25;4.60;;;15.00;99.90;;;;;;4893698;28;209938;-78
2022/05/22 06:42:22;;;;;;;15.35;4.05;;;15.20;99.90;;;;;;4933140;28;20378;-78
2022/05/22 06:44:54;;;;;;;;;;;15.40;99.90;;;;;;4868683;28;209833;-78
2022/05/22 06:47:21;;;;;;;16.30;3.78;;;15.50;99.90;;;;;;4949206;28;20475;-78
2022/05/22 06:49:47;;;;;;;17.38;3.85;;;15.80;99.90;;;;;;4893361;28;229062;-78
2022/05/22 06:52:14;;;;;;;15.63;3.80;;;16.00;99.90;;;;;;4947154;28;20082;-78
2022/05/22 06:54:40;;;;;;;14.80;3.90;;;16.10;99.90;;;;;;4907579;28;100532;-78
2022/05/22 06:57:07;;;;;;;15.05;3.58;;;16.30;99.90;;;;;;4945580;28;20055;-78
2022/05/22 06:59:33;;;;;;;14.95;3.90;;;16.30;99.90;;;;;;4880690;28;207251;-78
2022/05/22 07:02:00;;;;;;;17.13;3.92;;;16.40;99.90;;;;;;4941696;28;20051;-77
2022/05/22 07:04:27;;;;;;;15.57;3.75;;;16.50;99.90;;;;;;4878520;28;220161;-79
2022/05/22 07:06:54;;;;;;;13.48;3.22;;;16.70;99.90;;;;;;4920878;28;20067;-78
2022/05/22 07:09:20;;;;;;;18.67;3.75;;;16.80;99.90;;;;;;4887156;28;217962;-78
2022/05/22 07:11:47;;;;;;;14.93;3.58;;;17.00;99.90;;;;;;4951519;28;20051;-79
2022/05/22 07:14:14;;;;;;;18.25;3.60;;;17.20;99.90;;;;;;4878396;28;194255;-76
2022/05/22 07:16:40;;;;;;;16.30;3.97;;;17.10;99.90;;;;;;4953510;28;20057;-78
2022/05/22 07:19:09;;;;;;;17.92;3.72;;;17.20;99.90;;;;;;4892587;28;241329;-77
2022/05/22 07:21:35;;;;;;;15.85;3.53;;;17.40;99.90;;;;;;4962190;28;20062;-78
2022/05/22 07:24:01;;;;;;;12.75;3.30;;;17.60;99.90;;;;;;4889896;28;220514;-77
2022/05/22 07:26:29;;;;;;;14.40;3.22;;;17.70;99.90;;;;;;4950409;28;20051;-78
2022/05/22 07:28:58;;;;;;;11.75;2.58;;;17.90;99.90;;;;;;4897967;28;209150;-78
2022/05/22 07:31:26;;;;;;;12.63;2.92;;;18.20;99.90;;;;;;4918264;28;20531;-78
2022/05/22 07:33:53;;;;;;;14.00;3.13;;;18.30;99.90;;;;;;4906272;28;200911;-78
2022/05/22 07:36:20;;;;;;;13.30;2.70;;;18.40;99.90;;;;;;4920218;28;114875;-78
2022/05/22 07:38:47;;;;;;;13.50;2.83;;;18.70;99.90;;;;;;4905958;28;211931;-78
2022/05/22 07:41:14;;;;;;;14.27;3.22;;;18.80;99.90;;;;;;4953669;28;72992;-78
2022/05/22 07:43:41;;;;;;;11.82;2.70;;;19.00;99.90;;;;;;4920532;28;213108;-78
2022/05/22 07:46:09;;;;;;;10.80;2.47;;;19.20;99.90;;;;;;4921388;28;92974;-79
2022/05/22 07:48:35;;;;;;;10.90;2.65;;;19.30;99.90;;;;;;4905598;28;215884;-77
2022/05/22 07:51:03;;;;;;;13.48;2.80;;;19.60;99.90;;;;;;4909612;28;128165;-79
2022/05/22 07:53:30;;;;;;;11.40;2.13;;;19.80;99.90;;;;;;4908656;28;211328;-78
2022/05/22 07:55:57;;;;;;;10.90;2.15;;;20.00;99.90;;;;;;4908796;28;173545;-78
2022/05/22 07:58:26;;;;;;;9.18;2.03;;;19.90;99.90;;;;;;4924600;28;212422;-79
2022/05/22 08:00:53;;;;;;;11.60;2.50;;;20.00;99.90;;;;;;4885227;28;249922;-78
2022/05/22 08:03:20;;;;;;;11.32;2.33;;;20.20;99.90;;;;;;4927007;29;20051;-79
2022/05/22 08:05:46;;;;;;;10.85;2.03;;;20.20;98.90;;;;;;4857211;28;223354;-78
2022/05/22 08:08:12;;;;;;;11.30;2.00;;;20.30;99.90;;;;;;4928867;29;20056;-79
2022/05/22 08:10:40;;;;;;;11.15;1.98;;;20.50;99.50;;;;;;4887991;28;143976;-78
2022/05/22 08:13:09;;;;;;;11.10;1.85;;;20.70;99.30;;;;;;4946178;28;20044;-79
2022/05/22 08:15:37;;;;;;;9.40;1.80;;;20.90;98.00;;;;;;4898900;28;217978;-78
2022/05/22 08:18:03;;;;;;;10.70;2.05;;;21.20;97.70;;;;;;4933206;28;20059;-79
2022/05/22 08:20:33;;;;;;;10.65;2.10;;;21.30;97.20;;;;;;4895618;28;211507;-79
2022/05/22 08:23:03;;;;;;;11.23;2.22;;;21.30;96.30;;;;;;4963891;28;20059;-79
2022/05/22 08:25:31;;;;;;;9.15;1.90;;;21.30;97.50;;;;;;4891716;28;207300;-79
2022/05/22 08:27:58;;;;;;;11.73;2.10;;;21.50;95.80;;;;;;4923891;29;20052;-78
2022/05/22 08:30:26;;;;;;;10.80;2.15;;;21.50;96.70;;;;;;4891469;28;208674;-78
2022/05/22 08:32:53;;;;;;;13.32;2.10;;;21.70;96.40;;;;;;4959008;28;20536;-79
2022/05/22 08:35:31;;;;;;;9.00;1.90;;;21.70;94.60;;;;;;4887587;28;246195;-78
2022/05/22 08:37:58;;;;;;;11.85;1.92;;;22.00;95.70;;;;;;4940147;28;20056;-78
2022/05/22 08:40:28;;;;;;;12.73;2.28;;;22.40;95.60;;;;;;4858910;28;227759;-79
2022/05/22 08:43:06;;;;;;;9.38;2.00;;;22.70;94.40;;;;;;4930409;28;20465;-79
2022/05/22 08:45:52;;;;;;;9.63;1.80;;;22.80;92.40;;;;;;4902543;28;208219;-78
2022/05/22 08:48:33;;;;;;;11.32;2.25;;;22.90;93.00;;;;;;4939344;28;20481;-79
2022/05/22 08:51:00;;;;;;;11.52;2.17;;;23.20;93.10;;;;;;4892169;28;207575;-79
2022/05/22 08:53:38;;;;;;;9.82;1.80;;;23.30;90.00;;;;;;4903332;28;214177;-80
2022/05/22 08:59:22;;;;;;;11.50;2.25;;;23.70;87.10;;;;;;4915544;28;103412;-80
2022/05/22 09:02:02;;;;;;;12.07;1.95;;;23.70;80.30;;;;;;4886993;29;20055;-79
2022/05/22 09:04:47;;;;;;;10.77;2.20;;;23.70;81.90;;;;;;4832139;29;206261;-79
2022/05/22 09:07:32;;;;;;;10.70;2.22;;;23.80;78.90;;;;;;4906417;29;20055;-79
2022/05/22 09:10:05;;;;;;;11.52;2.17;;;24.00;81.50;;;;;;4851946;29;206008;-79
2022/05/22 09:12:34;;;;;;;10.90;2.00;;;24.50;84.70;;;;;;4898328;29;20059;-79
2022/05/22 09:15:26;;;;;;;11.48;2.00;;;25.20;82.50;;;;;;4861072;29;217517;-79
2022/05/22 09:18:12;;;;;;;10.05;2.00;;;25.40;76.50;;;;;;4860166;29;20064;-80
2022/05/22 09:21:16;;;;;;;8.57;1.70;;;25.50;76.00;;;;;;4814365;29;206977;-80
2022/05/22 09:23:58;;;;;;;9.30;1.80;;;25.40;69.30;;;;;;4800811;29;138431;-79
2022/05/22 09:26:44;;;;;;;10.55;2.03;;;25.20;71.80;;;;;;4775381;29;20058;-80
2022/05/22 09:29:29;;;;;;;9.10;1.98;;;25.00;65.20;;;;;;4763616;29;247915;-79
2022/05/22 09:32:16;;;;;;;10.35;2.05;;;25.30;69.20;;;;;;4817381;29;20598;-80
2022/05/22 09:35:10;;;;;;;10.65;1.85;;;25.20;69.60;;;;;;4763803;29;262004;-80
2022/05/22 09:37:46;;;;;;;10.98;2.13;;;25.50;68.50;;;;;;4838891;29;20395;-79
2022/05/22 09:40:18;;;;;;;10.50;1.88;;;25.30;68.20;;;;;;4782927;29;212766;-79
2022/05/22 09:42:55;;;;;;;8.52;1.77;;;25.20;65.10;;;;;;4857389;29;20045;-80
2022/05/22 09:45:51;;;;;;;10.10;1.75;;;25.00;65.40;;;;;;4800650;29;231015;-80
2022/05/22 09:48:25;;;;;;;11.88;2.03;;;24.90;63.40;;;;;;4870709;29;20071;-80
2022/05/22 09:51:35;;;;;;;13.45;2.00;;;24.30;62.20;;;;;;4772391;29;206952;-79
2022/05/22 09:54:25;;;;;;;10.02;2.00;;;23.60;62.60;;;;;;4774514;29;211880;-79
2022/05/22 09:57:10;;;;;;;9.80;1.70;;;23.30;64.50;;;;;;4833732;29;20057;-80
2022/05/22 10:00:01;;;;;;;10.77;1.90;;;22.90;65.30;;;;;;4778437;29;207671;-80
2022/05/22 10:02:44;;;;;;;10.15;1.95;;;22.70;65.10;;;;;;4882338;29;20064;-79
2022/05/22 10:05:23;;;;;;;9.18;1.83;;;22.90;65.80;;;;;;4797746;29;214459;-80
2022/05/22 10:08:04;;;;;;;10.30;1.80;;;23.00;65.50;;;;;;4875790;29;20061;-78
2022/05/22 10:10:39;;;;;;;;;;;23.10;65.50;;;;;;4826379;29;258521;-79
2022/05/22 10:13:13;;;;;;;11.10;2.10;;;22.80;63.80;;;;;;4885566;29;20310;-79
2022/05/22 10:15:50;;;;;;;9.50;2.10;;;22.40;68.90;;;;;;4836660;29;198343;-79
2022/05/22 10:18:37;;;;;;;10.88;2.08;;;22.70;69.80;;;;;;4891096;29;20056;-79
2022/05/22 10:21:23;;;;;;;12.45;2.58;;;22.80;70.30;;;;;;4802552;29;207422;-79
2022/05/22 10:24:43;;;;;;;8.98;1.85;;;22.90;68.80;;;;;;4824458;29;212339;-79
2022/05/22 10:27:18;;;;;;;11.97;1.93;;;22.80;69.00;;;;;;4808360;29;20058;-79
2022/05/22 10:30:06;;;;;;;13.18;2.13;;;22.60;69.90;;;;;;4787283;29;228135;-79
2022/05/22 10:33:02;;;;;;;8.77;1.88;;;22.40;70.10;;;;;;4874359;29;20056;-79
2022/05/22 10:35:55;;;;;;;11.80;2.35;;;22.40;70.80;;;;;;4814828;29;199655;-78
2022/05/22 10:38:25;;;;;;;10.65;2.00;;;22.90;69.40;;;;;;4858708;29;155329;-79
2022/05/22 10:43:46;;;;;;;10.32;1.80;;;24.10;72.60;;;;;;4839809;29;216354;-78
2022/05/22 10:46:14;;;;;;;10.82;1.95;;;25.00;68.80;;;;;;4853424;29;20041;-78
2022/05/22 10:48:48;;;;;;;9.10;1.80;;;25.30;67.30;;;;;;4824158;29;214994;-78
2022/05/22 10:51:23;;;;;;;12.25;2.10;;;25.60;65.30;;;;;;4856670;29;112891;-78
2022/05/22 10:53:57;;;;;;;11.70;1.92;;;26.20;66.70;;;;;;4843652;29;205288;-78
2022/05/22 10:56:29;;;;;;;10.13;1.80;;;26.80;64.90;;;;;;4852261;29;61433;-79
2022/05/22 10:58:55;;;;;;;11.73;2.35;;;27.00;62.10;;;;;;4815800;29;204766;-79
2022/05/22 11:01:31;;;;;;;9.45;1.95;;;26.80;61.30;;;;;;4890811;28;261200;-79
2022/05/22 11:04:07;;;;;;;9.57;1.60;;;26.90;61.90;;;;;;4913509;28;114500;-79
2022/05/22 11:06:37;;;;;;;7.90;1.48;;;27.30;59.80;;;;;;4890170;28;152058;-79
2022/05/22 11:09:05;;;;;;;8.95;1.60;;;27.60;58.70;;;;;;4869155;28;204892;-79
2022/05/22 11:11:35;;;;;;;8.75;1.70;;;28.20;58.80;;;;;;4942580;28;20417;-79
2022/05/22 11:14:12;;;;;;;9.57;1.88;;;28.70;58.00;;;;;;4917493;28;206030;-78
2022/05/22 11:16:39;;;;;;;10.77;1.83;;;29.10;56.20;;;;;;4929599;28;20515;-79
2022/05/22 11:19:10;;;;;;;10.63;1.90;;;29.30;54.00;;;;;;4902325;28;227477;-77
2022/05/22 11:21:57;;;;;;;9.57;1.92;;;29.40;52.60;;;;;;4949651;28;20365;-78
2022/05/22 11:24:32;;;;;;;8.73;1.75;;;29.70;51.20;;;;;;4895413;28;208541;-78
2022/05/22 11:27:09;;;;;;;8.13;1.52;;;30.00;49.10;;;;;;4946550;28;20066;-77
2022/05/22 11:29:56;;;;;;;10.68;1.80;;;30.20;49.80;;;;;;4905468;28;191639;-76
2022/05/22 11:32:31;;;;;;;10.98;1.90;;;30.40;50.20;;;;;;4956764;28;20527;-77
2022/05/22 11:35:30;;;;;;;9.25;1.60;;;30.80;48.40;;;;;;4875389;28;205545;-77
2022/05/22 11:38:21;;;;;;;8.73;1.60;;;31.10;49.10;;;;;;4955402;28;20405;-78
2022/05/22 11:40:47;;;;;;;9.05;1.77;;;31.20;46.80;;;;;;4899273;28;205424;-77
2022/05/22 11:43:44;;;;;;;8.43;1.60;;;30.70;45.80;;;;;;4927412;28;20043;-77
2022/05/22 11:46:41;;;;;;;13.05;2.28;;;30.40;44.90;;;;;;4872348;28;209629;-77
2022/05/22 11:49:42;;;;;;;10.20;1.60;;;29.90;44.30;;;;;;4896734;28;216086;-77
2022/05/22 11:55:16;;;;;;;9.45;1.50;;;28.50;45.50;;;;;;4890031;28;233570;-77
2022/05/22 11:58:12;;;;;;;11.95;1.60;;;28.00;47.10;;;;;;4945497;28;20064;-77
2022/05/22 12:00:41;;;;;;;8.23;1.55;;;27.80;46.80;;;;;;4894299;28;205813;-77
2022/05/22 12:03:10;;;;;;;8.25;1.58;;;27.60;46.50;;;;;;4948288;28;20055;-78
2022/05/22 12:05:48;;;;;;;8.57;1.48;;;27.50;47.00;;;;;;4858678;28;209264;-78
2022/05/22 12:08:35;;;;;;;9.15;1.83;;;27.50;47.00;;;;;;4943237;28;20056;-77
2022/05/22 12:11:21;;;;;;;8.00;1.63;;;27.40;47.50;;;;;;4882786;28;205131;-77
2022/05/22 12:14:16;;;;;;;9.52;1.90;;;27.30;47.40;;;;;;4904482;28;212204;-78
2022/05/22 12:17:05;;;;;;;8.77;1.70;;;27.00;48.30;;;;;;4917823;28;20055;-78
2022/05/22 12:19:42;;;;;;;9.73;1.50;;;26.70;47.50;;;;;;4900153;28;193416;-78
2022/05/22 12:23:07;;;;;;;9.45;1.70;;;26.50;48.10;;;;;;4950779;28;20062;-78
2022/05/22 12:25:20;;;;;;;8.50;1.80;;;26.50;49.10;;;;;;4906759;28;205336;-76
2022/05/22 12:27:47;;;;;;;9.10;1.70;;;26.20;48.70;;;;;;4949084;28;20054;-76
2022/05/22 12:30:14;;;;;;;9.02;1.58;;;25.90;48.90;;;;;;4883744;28;208931;-77
2022/05/22 12:32:52;;;;;;;9.02;1.88;;;25.60;49.30;;;;;;4946920;28;20066;-77
2022/05/22 12:35:18;;;;;;;9.93;1.70;;;25.50;49.70;;;;;;4885679;28;231840;-77
2022/05/22 12:38:06;;;;;;;11.77;3.92;;;25.50;50.60;;;;;;4930205;28;20067;-78
2022/05/22 12:40:39;;;;;;;13.65;3.53;;;25.60;51.00;;;;;;4906971;28;200636;-79
2022/05/22 12:43:08;;;;;;;12.48;1.90;;;25.60;51.00;;;;;;4949560;28;20413;-78
2022/05/22 12:45:36;;;;;;;9.05;2.17;;;25.50;50.80;;;;;;4877882;28;187152;-78
2022/05/22 12:48:12;;;;;;;9.23;1.70;;;25.40;50.80;;;;;;4954204;28;20071;-78
2022/05/22 12:50:49;;;;;;;7.90;1.52;;;25.50;50.80;;;;;;4901586;28;207142;-79
2022/05/22 12:53:29;;;;;;;7.60;1.50;;;25.40;49.80;;;;;;4934465;28;20240;-79
2022/05/22 12:55:56;;;;;;;9.40;1.58;;;25.20;49.90;;;;;;4881332;28;243623;-79
2022/05/22 12:58:40;;;;;;;8.00;1.60;;;25.10;50.80;;;;;;4933378;28;218478;-80
2022/05/22 13:01:25;;;;;;;8.95;1.50;;;25.00;50.20;;;;;;4905601;28;224741;-78
2022/05/22 13:03:55;;;;;;;8.77;1.52;;;25.00;49.10;;;;;;4912840;28;212034;-78
2022/05/22 13:06:25;;;;;;;9.10;1.90;;;25.10;51.30;;;;;;4917292;28;226900;-78
2022/05/22 13:09:06;;;;;;;9.18;1.80;;;25.80;51.60;;;;;;4910042;28;200657;-78
2022/05/22 13:11:49;;;;;;;10.00;1.63;;;26.50;51.50;;;;;;4923812;28;20077;-77
2022/05/22 13:14:34;;;;;;;9.52;1.52;;;27.10;50.30;;;;;;4887225;28;220836;-79
2022/05/22 13:17:00;;;;;;;7.28;1.35;;;27.50;50.10;;;;;;4947630;28;20585;-79